Atlanta, GA (31156)

2:01 AM EDT on May 26, 2015 (GMT -0400)
Dunwoody, Austin Glen | | Change Station
CLOSE
Current Station
Personal Weather Station
Location: Dunwoody, GA
Elevation: 1144 ft
Nearby Weather Stations

Elev 1144 ft 33.96 °N, 84.34 °W | Updated 33 seconds ago

Overcast
Overcast
67.6 °F
Feels Like 67.6 °F
N
0.0
Wind Variable Wind from SE
Gusts 3.0 mph

Today
High -- | Low -- °F
--% Chance of Precip.
Yesterday
High -- | Low -- °F
Precip. -- in
6:29 AM 8:39 PM
First Quarter, 55% visible
Pressure 30.19 in
Visibility 8.0 miles
Clouds Overcast 1200 ft
Dew Point 67 °F
Humidity 98%
Rainfall 0.00 in
Snow Depth Not available.
UV 0 out of 12
Pollen 4.20 out of 12
Air Quality Not available.
Flu Activity Sporadic
METAR KPDK 260553Z AUTO 08003KT 8SM OVC012 20/19 A3023 RMK AO2 SLP221 60106 T02000194 10222 20194 50006

More Conditions Fewer Conditions

Pressure 30.19 in
Visibility 8.0 miles
Clouds Overcast 1200 ft
Dew Point 67 °F
Humidity 98%
Rainfall 0.00 in
Snow Depth Not available.
UV 0 out of 12
Pollen 4.20 out of 12
Air Quality Not available.
Flu Activity Sporadic
METAR KPDK 260553Z AUTO 08003KT 8SM OVC012 20/19 A3023 RMK AO2 SLP221 60106 T02000194 10222 20194 50006

More Conditions Fewer Conditions

10-Day Weather Forecast

Almanac

Astronomy

May. 26, 2015 Rise Set
Actual Time
Civil Twilight
Nautical Twilight
Astronomical Twilight
Moon
Length of Visible Light
Length of Day
Tomorrow will be .
, % of the Moon is Illuminated

Today's Extremes

State Highs State Lows

Community

WunderPhotos

Upload Photos

1,824,294 photos uploaded!

WunderBlogs® & News

Nearby

Air Quality

  Air Quality AQ Index Pollutant
Not available.

Snow Depth

Station Depth Elevation

Earthquake Activity

City Distance Mag. Time & Date
Minimum magnitude displayed is 2.5.

Coastal Water Temperatures

Place Temperature

Stations

Nearby Weather Stations

Station Location Temp. Windchill Dew Point Humidity Wind Precip. Elev Updated Type